Bulk Japan — D5GP4 — position and weather

sailwx.info

Track history (hours):
 
Tides and Currents Weather Stations Pressure Air Temp Water Temp Dewpoint Dewpoint Depression Visibility Wind Speed Wind Dir Waves Ship Positions

Bulk Japan

Last reported at 2018-Apr-11 19:55 UTC. Time now 2018-Jun-18 00:20 UTC.
Position N 30°50' E 123°16'.
Warning: this ship's position is months out of date.

Length 227 m; draft 8.1 m.

Type: Cargo ship. MMSI: 636016529.

Date/timePositionNaut miles runAvg speedWind from/ knotsBaromVisibWave heightAir tempDewpointWater temp
2018-Apr-11 19:55N 30°50' E 123°16'1912.3
2018-Apr-11 18:24N 31°02' E 122°60'512.6
2018-Apr-11 17:59N 31°05' E 122°54'712.3
2018-Apr-11 17:23N 31°05' E 122°46'512.4
2018-Apr-11 16:59N 31°06' E 122°40'1111.4
2018-Apr-11 15:59N 31°06' E 122°27'612.1
2018-Apr-11 15:30N 31°06' E 122°20'714.2
2018-Apr-11 15:00N 31°09' E 122°13'713.8
2018-Apr-11 14:28N 31°14' E 122°06'613.0
2018-Apr-11 13:59N 31°15' E 121°59'713.0
2018-Apr-11 13:28N 31°16' E 121°51'511.8
2018-Apr-11 13:00N 31°19' E 121°45'8 8.7
2018-Apr-11 12:06N 31°22' E 121°37'3 9.0
2018-Apr-11 11:48N 31°24' E 121°34'4 9.3
2018-Apr-11 11:21N 31°26' E 121°30'2 6.1
2018-Apr-11 11:00N 31°27' E 121°28'510.3
2018-Apr-11 10:30N 31°31' E 121°24'510.5
2018-Apr-11 10:00N 31°34' E 121°19'612.8
2018-Apr-11 09:30N 31°39' E 121°14'4 7.9
2018-Apr-11 09:00N 31°41' E 121°10'0 0.0
2018-Apr-11 07:41N 31°41' E 121°10'0 0.0
2018-Apr-11 07:29N 31°41' E 121°10'0 0.1
2018-Apr-11 06:59N 31°41' E 121°10'0 0.1
2018-Apr-11 06:20N 31°41' E 121°10'0 0.0
2018-Apr-11 04:29N 31°41' E 121°10'0 0.0
2018-Apr-11 03:53N 31°41' E 121°10'0 0.0
2018-Apr-11 03:17N 31°41' E 121°10'0 0.0
2018-Apr-11 02:59N 31°41' E 121°10'0 0.1
2018-Apr-11 02:23N 31°41' E 121°10'0 0.0
2018-Apr-11 01:59N 31°41' E 121°10'0 0.0
2018-Apr-11 01:26N 31°41' E 121°10'0 0.0
2018-Apr-11 00:53N 31°41' E 121°10'0 0.0
2018-Apr-11 00:26N 31°41' E 121°10'0 0.1
2018-Apr-10 23:59N 31°41' E 121°10'0 0.1
2018-Apr-10 23:29N 31°41' E 121°10'0 0.0
2018-Apr-10 22:56N 31°41' E 121°10'0 0.1
2018-Apr-10 22:29N 31°41' E 121°10'0 0.0
2018-Apr-10 21:59N 31°41' E 121°10'0 0.1
2018-Apr-10 21:29N 31°41' E 121°10'0 0.1
2018-Apr-10 20:59N 31°41' E 121°10'0 0.0
2018-Apr-10 20:17N 31°41' E 121°10'0 0.0
2018-Apr-10 19:53N 31°41' E 121°10'0 0.0
2018-Apr-10 19:29N 31°41' E 121°10'0 0.1
2018-Apr-10 18:56N 31°41' E 121°10'0 0.0
2018-Apr-10 18:20N 31°41' E 121°10'0 0.0
2018-Apr-10 17:59N 31°41' E 121°10'0 0.0
2018-Apr-10 17:29N 31°41' E 121°10'0 0.1
2018-Apr-10 16:56N 31°41' E 121°10'0 0.0
2018-Apr-10 15:26N 31°41' E 121°10'0 0.1
2018-Apr-10 14:56N 31°41' E 121°10'0 0.1
2018-Apr-10 14:23N 31°41' E 121°10'0 0.0
2018-Apr-10 13:59N 31°41' E 121°10'0 0.1
2018-Apr-10 13:29N 31°41' E 121°10'0 0.0
2018-Apr-10 12:56N 31°41' E 121°10'0 0.1
2018-Apr-10 12:29N 31°41' E 121°10'0 0.1
2018-Apr-10 11:59N 31°41' E 121°10'0 0.1
2018-Apr-10 11:23N 31°41' E 121°10'0 0.1
2018-Apr-10 10:59N 31°41' E 121°10'0 0.0
2018-Apr-10 10:29N 31°41' E 121°10'0 0.1
2018-Apr-10 09:59N 31°41' E 121°10'1 1.6
2018-Apr-10 09:30N 31°41' E 121°11'3 6.3
2018-Apr-10 09:00N 31°39' E 121°14'5 8.2
2018-Apr-10 08:26N 31°36' E 121°18'1 2.5
2018-Apr-10 08:00N 31°36' E 121°19'0 0.1
2018-Apr-10 07:29N 31°36' E 121°19'0 0.0
2018-Apr-10 06:59N 31°36' E 121°19'0 0.0
2018-Apr-10 06:29N 31°36' E 121°19'0 0.0
2018-Apr-10 05:56N 31°36' E 121°19'0 0.0
2018-Apr-10 05:29N 31°36' E 121°19'0 0.0
2018-Apr-10 04:50N 31°36' E 121°19'0 0.0
2018-Apr-10 04:29N 31°36' E 121°19'0 0.0
2018-Apr-10 03:56N 31°36' E 121°19'0 0.0
2018-Apr-10 03:29N 31°36' E 121°19'0 0.2
2018-Apr-10 02:59N 31°36' E 121°19'0 0.1
2018-Apr-10 02:29N 31°36' E 121°19'0 0.2
2018-Apr-10 01:56N 31°36' E 121°19'0 0.1
2018-Apr-10 01:29N 31°36' E 121°19'0 0.0
2018-Apr-10 00:56N 31°36' E 121°19'0 0.0
2018-Apr-10 00:29N 31°36' E 121°19'0 0.0
2018-Apr-09 23:59N 31°36' E 121°19'0 0.0
2018-Apr-09 23:29N 31°36' E 121°19'0 0.0
2018-Apr-09 22:59N 31°36' E 121°19'0 0.0
2018-Apr-09 22:29N 31°36' E 121°19'0 0.2
2018-Apr-09 21:56N 31°36' E 121°19'0 0.2
2018-Apr-09 21:29N 31°36' E 121°19'0 0.1
2018-Apr-09 20:59N 31°36' E 121°19'0 0.0
2018-Apr-09 20:26N 31°36' E 121°19'0 0.0
2018-Apr-09 19:56N 31°36' E 121°19'0 0.0
2018-Apr-09 19:17N 31°36' E 121°19'0 0.0
2018-Apr-09 18:56N 31°36' E 121°19'0 0.0
2018-Apr-09 18:29N 31°36' E 121°19'0 0.0
2018-Apr-09 17:56N 31°36' E 121°19'0 0.0
2018-Apr-09 17:29N 31°36' E 121°19'0 0.0
2018-Apr-09 16:59N 31°36' E 121°19'0 0.0
2018-Apr-09 16:29N 31°36' E 121°19'0 0.0
2018-Apr-09 15:59N 31°36' E 121°19'0 0.0
2018-Apr-09 15:29N 31°36' E 121°19'0 0.0
2018-Apr-09 14:59N 31°36' E 121°19'0 0.2
2018-Apr-09 14:29N 31°36' E 121°19'0 0.3
2018-Apr-09 14:00N 31°36' E 121°19'2 4.1
2018-Apr-09 13:30N 31°34' E 121°19'5 9.8
2018-Apr-09 13:00N 31°31' E 121°24'510.3
2018-Apr-09 12:30N 31°28' E 121°28'4 8.2
2018-Apr-09 12:00N 31°25' E 121°32'4 8.1
2018-Apr-09 11:30N 31°23' E 121°36'4 8.5
2018-Apr-09 11:00N 31°21' E 121°40'510.1
2018-Apr-09 10:31N 31°19' E 121°45'4 8.0
2018-Apr-09 10:00N 31°17' E 121°50'5 9.7
2018-Apr-09 09:31N 31°16' E 121°55'510.2
2018-Apr-09 08:59N 31°15' E 122°01'611.7
2018-Apr-09 08:31N 31°13' E 122°07'4 6.2
2018-Apr-09 07:56N 31°11' E 122°11'4 8.8
2018-Apr-09 07:29N 31°08' E 122°15'4 8.6
2018-Apr-09 07:00N 31°06' E 122°19'4 7.7
2018-Apr-09 06:30N 31°06' E 122°23'6 9.2
2018-Apr-09 05:54N 31°06' E 122°30'3 7.0
2018-Apr-09 05:29N 31°06' E 122°33'4 4.6
2018-Apr-09 04:32N 31°10' E 122°35'1 8.7
2018-Apr-09 04:28N 31°11' E 122°35'1 0.2
2018-Apr-08 20:03N 31°12' E 122°36'  
2018-Apr-01 23:59N 31°12' E 122°36'0 0.1
2018-Apr-01 23:29N 31°12' E 122°36'0 0.1
2018-Apr-01 22:02N 31°12' E 122°36'0 0.0
2018-Apr-01 21:47N 31°12' E 122°36'0 0.0
2018-Apr-01 21:26N 31°12' E 122°36'  
Track history (hours):
 
Tides and Currents Weather Stations Pressure Air Temp Water Temp Dewpoint Dewpoint Depression Visibility Wind Speed Wind Dir Waves Ship Positions

Bulk Japan

Last reported at 2018-Apr-11 19:55 UTC. Time now 2018-Jun-18 00:20 UTC.
Position N 30°50' E 123°16'.
Warning: this ship's position is months out of date.

Length 227 m; draft 8.1 m.

Type: Cargo ship. MMSI: 636016529.

Date/timePositionNaut miles runAvg speedWind from/ knotsBaromVisibWave heightAir tempDewpointWater temp
2018-Apr-11 19:55N 30°50' E 123°16'1912.3
2018-Apr-11 18:24N 31°02' E 122°60'512.6
2018-Apr-11 17:59N 31°05' E 122°54'712.3
2018-Apr-11 17:23N 31°05' E 122°46'512.4
2018-Apr-11 16:59N 31°06' E 122°40'1111.4
2018-Apr-11 15:59N 31°06' E 122°27'612.1
2018-Apr-11 15:30N 31°06' E 122°20'714.2
2018-Apr-11 15:00N 31°09' E 122°13'713.8
2018-Apr-11 14:28N 31°14' E 122°06'613.0
2018-Apr-11 13:59N 31°15' E 121°59'713.0
2018-Apr-11 13:28N 31°16' E 121°51'511.8
2018-Apr-11 13:00N 31°19' E 121°45'8 8.7
2018-Apr-11 12:06N 31°22' E 121°37'3 9.0
2018-Apr-11 11:48N 31°24' E 121°34'4 9.3
2018-Apr-11 11:21N 31°26' E 121°30'2 6.1
2018-Apr-11 11:00N 31°27' E 121°28'510.3
2018-Apr-11 10:30N 31°31' E 121°24'510.5
2018-Apr-11 10:00N 31°34' E 121°19'612.8
2018-Apr-11 09:30N 31°39' E 121°14'4 7.9
2018-Apr-11 09:00N 31°41' E 121°10'0 0.0
2018-Apr-11 07:41N 31°41' E 121°10'0 0.0
2018-Apr-11 07:29N 31°41' E 121°10'0 0.1
2018-Apr-11 06:59N 31°41' E 121°10'0 0.1
2018-Apr-11 06:20N 31°41' E 121°10'0 0.0
2018-Apr-11 04:29N 31°41' E 121°10'0 0.0
2018-Apr-11 03:53N 31°41' E 121°10'0 0.0
2018-Apr-11 03:17N 31°41' E 121°10'0 0.0
2018-Apr-11 02:59N 31°41' E 121°10'0 0.1
2018-Apr-11 02:23N 31°41' E 121°10'0 0.0
2018-Apr-11 01:59N 31°41' E 121°10'0 0.0
2018-Apr-11 01:26N 31°41' E 121°10'0 0.0
2018-Apr-11 00:53N 31°41' E 121°10'0 0.0
2018-Apr-11 00:26N 31°41' E 121°10'0 0.1
2018-Apr-10 23:59N 31°41' E 121°10'0 0.1
2018-Apr-10 23:29N 31°41' E 121°10'0 0.0
2018-Apr-10 22:56N 31°41' E 121°10'0 0.1
2018-Apr-10 22:29N 31°41' E 121°10'0 0.0
2018-Apr-10 21:59N 31°41' E 121°10'0 0.1
2018-Apr-10 21:29N 31°41' E 121°10'0 0.1
2018-Apr-10 20:59N 31°41' E 121°10'0 0.0
2018-Apr-10 20:17N 31°41' E 121°10'0 0.0
2018-Apr-10 19:53N 31°41' E 121°10'0 0.0
2018-Apr-10 19:29N 31°41' E 121°10'0 0.1
2018-Apr-10 18:56N 31°41' E 121°10'0 0.0
2018-Apr-10 18:20N 31°41' E 121°10'0 0.0
2018-Apr-10 17:59N 31°41' E 121°10'0 0.0
2018-Apr-10 17:29N 31°41' E 121°10'0 0.1
2018-Apr-10 16:56N 31°41' E 121°10'0 0.0
2018-Apr-10 15:26N 31°41' E 121°10'0 0.1
2018-Apr-10 14:56N 31°41' E 121°10'0 0.1
2018-Apr-10 14:23N 31°41' E 121°10'0 0.0
2018-Apr-10 13:59N 31°41' E 121°10'0 0.1
2018-Apr-10 13:29N 31°41' E 121°10'0 0.0
2018-Apr-10 12:56N 31°41' E 121°10'0 0.1
2018-Apr-10 12:29N 31°41' E 121°10'0 0.1
2018-Apr-10 11:59N 31°41' E 121°10'0 0.1
2018-Apr-10 11:23N 31°41' E 121°10'0 0.1
2018-Apr-10 10:59N 31°41' E 121°10'0 0.0
2018-Apr-10 10:29N 31°41' E 121°10'0 0.1
2018-Apr-10 09:59N 31°41' E 121°10'1 1.6
2018-Apr-10 09:30N 31°41' E 121°11'3 6.3
2018-Apr-10 09:00N 31°39' E 121°14'5 8.2
2018-Apr-10 08:26N 31°36' E 121°18'1 2.5
2018-Apr-10 08:00N 31°36' E 121°19'0 0.1
2018-Apr-10 07:29N 31°36' E 121°19'0 0.0
2018-Apr-10 06:59N 31°36' E 121°19'0 0.0
2018-Apr-10 06:29N 31°36' E 121°19'0 0.0
2018-Apr-10 05:56N 31°36' E 121°19'0 0.0
2018-Apr-10 05:29N 31°36' E 121°19'0 0.0
2018-Apr-10 04:50N 31°36' E 121°19'0 0.0
2018-Apr-10 04:29N 31°36' E 121°19'0 0.0
2018-Apr-10 03:56N 31°36' E 121°19'0 0.0
2018-Apr-10 03:29N 31°36' E 121°19'0 0.2
2018-Apr-10 02:59N 31°36' E 121°19'0 0.1
2018-Apr-10 02:29N 31°36' E 121°19'0 0.2
2018-Apr-10 01:56N 31°36' E 121°19'0 0.1
2018-Apr-10 01:29N 31°36' E 121°19'0 0.0
2018-Apr-10 00:56N 31°36' E 121°19'0 0.0
2018-Apr-10 00:29N 31°36' E 121°19'0 0.0
2018-Apr-09 23:59N 31°36' E 121°19'0 0.0
2018-Apr-09 23:29N 31°36' E 121°19'0 0.0
2018-Apr-09 22:59N 31°36' E 121°19'0 0.0
2018-Apr-09 22:29N 31°36' E 121°19'0 0.2
2018-Apr-09 21:56N 31°36' E 121°19'0 0.2
2018-Apr-09 21:29N 31°36' E 121°19'0 0.1
2018-Apr-09 20:59N 31°36' E 121°19'0 0.0
2018-Apr-09 20:26N 31°36' E 121°19'0 0.0
2018-Apr-09 19:56N 31°36' E 121°19'0 0.0
2018-Apr-09 19:17N 31°36' E 121°19'0 0.0
2018-Apr-09 18:56N 31°36' E 121°19'0 0.0
2018-Apr-09 18:29N 31°36' E 121°19'0 0.0
2018-Apr-09 17:56N 31°36' E 121°19'0 0.0
2018-Apr-09 17:29N 31°36' E 121°19'0 0.0
2018-Apr-09 16:59N 31°36' E 121°19'0 0.0
2018-Apr-09 16:29N 31°36' E 121°19'0 0.0
2018-Apr-09 15:59N 31°36' E 121°19'0 0.0
2018-Apr-09 15:29N 31°36' E 121°19'0 0.0
2018-Apr-09 14:59N 31°36' E 121°19'0 0.2
2018-Apr-09 14:29N 31°36' E 121°19'0 0.3
2018-Apr-09 14:00N 31°36' E 121°19'2 4.1
2018-Apr-09 13:30N 31°34' E 121°19'5 9.8
2018-Apr-09 13:00N 31°31' E 121°24'510.3
2018-Apr-09 12:30N 31°28' E 121°28'4 8.2
2018-Apr-09 12:00N 31°25' E 121°32'4 8.1
2018-Apr-09 11:30N 31°23' E 121°36'4 8.5
2018-Apr-09 11:00N 31°21' E 121°40'510.1
2018-Apr-09 10:31N 31°19' E 121°45'4 8.0
2018-Apr-09 10:00N 31°17' E 121°50'5 9.7
2018-Apr-09 09:31N 31°16' E 121°55'510.2
2018-Apr-09 08:59N 31°15' E 122°01'611.7
2018-Apr-09 08:31N 31°13' E 122°07'4 6.2
2018-Apr-09 07:56N 31°11' E 122°11'4 8.8
2018-Apr-09 07:29N 31°08' E 122°15'4 8.6
2018-Apr-09 07:00N 31°06' E 122°19'4 7.7
2018-Apr-09 06:30N 31°06' E 122°23'6 9.2
2018-Apr-09 05:54N 31°06' E 122°30'3 7.0
2018-Apr-09 05:29N 31°06' E 122°33'4 4.6
2018-Apr-09 04:32N 31°10' E 122°35'1 8.7
2018-Apr-09 04:28N 31°11' E 122°35'1 0.2
2018-Apr-08 20:03N 31°12' E 122°36'  
2018-Apr-01 23:59N 31°12' E 122°36'0 0.1
2018-Apr-01 23:29N 31°12' E 122°36'0 0.1
2018-Apr-01 22:02N 31°12' E 122°36'0 0.0
2018-Apr-01 21:47N 31°12' E 122°36'0 0.0
2018-Apr-01 21:26N 31°12' E 122°36'  

Dump ship's entire track history